Time;durP1;ratioP1;P1;durP2;ratioP2;P2;SDS_P1;SDS_P2;PMS_P1;PMS_P2;Temp;Humidity;BMP_temperature;BMP_pressure;BME280_temperature;BME280_humidity;BME280_pressure;Samples;Min_cycle;Max_cycle;Signal;HPM_P1;HPM_P2
2022/11/13 00:01:09;;;;;;;0.00;0.00;;;;;;;16.64;55.10;103092.56;2092824;28;20144;-66
2022/11/13 00:02:32;;;;;;;0.00;0.00;;;;;;;16.64;55.27;103085.19;2094260;28;20515;-66
2022/11/13 00:03:54;;;;;;;0.00;0.00;;;;;;;16.65;55.29;103086.00;2094653;28;20067;-65
2022/11/13 00:05:16;;;;;;;0.00;0.00;;;;;;;16.65;55.16;103094.97;2096429;28;20062;-67
2022/11/13 00:06:37;;;;;;;0.00;0.00;;;;;;;16.63;55.14;103080.88;2094756;28;20561;-66
2022/11/13 00:07:57;;;;;;;0.00;0.00;;;;;;;16.63;54.82;103086.34;2091962;28;20055;-66
2022/11/13 00:09:18;;;;;;;0.00;0.00;;;;;;;16.62;55.42;103087.44;2096589;28;20044;-66
2022/11/13 00:10:39;;;;;;;0.00;0.00;;;;;;;16.62;55.07;103082.00;2091618;28;20122;-66
2022/11/13 00:12:00;;;;;;;0.00;0.00;;;;;;;16.62;55.10;103081.22;2095755;28;20063;-66
2022/11/13 00:13:20;;;;;;;0.00;0.00;;;;;;;16.62;55.05;103076.53;2096828;28;20418;-65
2022/11/13 00:14:47;;;;;;;0.00;0.00;;;;;;;16.61;54.86;103079.59;2089436;28;20397;-65
2022/11/13 00:16:11;;;;;;;0.00;0.00;;;;;;;16.62;54.88;103078.47;2093919;28;20740;-64
2022/11/13 00:17:33;;;;;;;0.00;0.00;;;;;;;16.60;54.77;103069.81;2091858;28;20076;-65
2022/11/13 00:18:54;;;;;;;0.00;0.00;;;;;;;16.61;55.07;103079.59;2093001;28;20489;-65
2022/11/13 00:20:18;;;;;;;0.00;0.00;;;;;;;16.61;54.93;103066.75;2093976;28;20515;-65
2022/11/13 00:21:39;;;;;;;0.00;0.00;;;;;;;16.60;54.82;103069.81;2092821;28;20045;-64
2022/11/13 00:23:00;;;;;;;0.00;0.00;;;;;;;16.60;54.90;103058.91;2092195;28;20091;-64
2022/11/13 00:24:21;;;;;;;0.00;0.00;;;;;;;16.59;54.94;103062.75;2093473;28;20106;-65
2022/11/13 00:25:41;;;;;;;0.00;0.00;;;;;;;16.58;55.02;103063.88;2094607;28;20056;-66
2022/11/13 00:27:03;;;;;;;0.00;0.00;;;;;;;16.58;54.98;103056.50;2094050;28;20524;-64
2022/11/13 00:28:24;;;;;;;0.00;0.00;;;;;;;16.58;54.94;103061.16;2097507;28;20049;-65
2022/11/13 00:29:45;;;;;;;0.00;0.00;;;;;;;16.59;54.96;103051.84;2089871;28;20605;-65
2022/11/13 00:31:07;;;;;;;;;;;;;;;16.39;55.25;103056.84;2092965;28;20123;-65
2022/11/13 00:32:28;;;;;;;0.00;0.00;;;;;;;16.51;55.14;103052.69;2094791;28;19935;-65
2022/11/13 00:33:50;;;;;;;0.00;0.00;;;;;;;16.54;54.66;103049.31;2092668;28;20114;-65
2022/11/13 00:35:34;;;;;;;0.00;0.00;;;;;;;16.54;55.02;103049.31;2091694;28;20095;-65
2022/11/13 00:36:55;;;;;;;0.00;0.00;;;;;;;16.54;55.02;103043.84;2090374;28;20053;-65
2022/11/13 00:38:17;;;;;;;0.00;0.00;;;;;;;16.55;54.96;103042.72;2092273;28;20049;-64
2022/11/13 00:39:38;;;;;;;0.00;0.00;;;;;;;16.56;55.02;103036.13;2090934;28;20055;-65
2022/11/13 00:40:59;;;;;;;0.00;0.00;;;;;;;16.56;54.72;103030.66;2092104;28;20099;-65
2022/11/13 00:42:20;;;;;;;0.00;0.00;;;;;;;16.55;54.91;103031.81;2089767;28;20051;-65
2022/11/13 00:43:41;;;;;;;;;;;;;;;16.37;55.58;103022.88;2092327;28;20515;-65
2022/11/13 00:45:02;;;;;;;0.00;0.00;;;;;;;16.49;55.22;103025.72;2089915;28;20286;-66
2022/11/13 00:46:24;;;;;;;0.00;0.00;;;;;;;16.50;54.98;103016.44;2090406;28;20686;-65
2022/11/13 00:47:44;;;;;;;0.00;0.00;;;;;;;16.53;55.15;103017.69;2089481;28;20059;-69
2022/11/13 00:49:05;;;;;;;0.00;0.00;;;;;;;16.53;55.22;103023.16;2089490;28;20123;-70
2022/11/13 00:50:27;;;;;;;0.00;0.00;;;;;;;16.54;54.88;103019.31;2090122;28;20132;-70
2022/11/13 00:51:50;;;;;;;0.00;0.00;;;;;;;16.55;55.20;103029.09;2090163;28;20048;-69
2022/11/13 00:53:11;;;;;;;0.00;0.00;;;;;;;16.55;55.06;103031.81;2090755;28;20045;-70
2022/11/13 00:54:38;;;;;;;0.00;0.00;;;;;;;16.54;55.14;103028.28;2092148;28;20059;-69
2022/11/13 00:56:00;;;;;;;0.00;0.00;;;;;;;16.56;55.18;103025.22;2091287;28;20052;-69
2022/11/13 00:57:21;;;;;;;0.00;0.00;;;;;;;16.55;55.08;103026.34;2091962;28;20067;-69
2022/11/13 00:58:41;;;;;;;0.00;0.00;;;;;;;16.55;55.29;103018.97;2089738;28;20052;-69
2022/11/13 01:00:04;;;;;;;0.00;0.00;;;;;;;16.55;55.22;103004.53;2095088;28;20087;-69
2022/11/13 01:01:25;;;;;;;0.00;0.00;;;;;;;16.55;55.16;103007.25;2089828;28;20100;-69
2022/11/13 01:02:47;;;;;;;0.00;0.00;;;;;;;16.56;55.05;103011.59;2091743;28;20131;-69
2022/11/13 01:04:07;;;;;;;0.00;0.00;;;;;;;16.56;54.96;103006.13;2095146;28;20055;-70
2022/11/13 01:05:29;;;;;;;0.00;0.00;;;;;;;16.56;55.18;103014.31;2090911;28;20140;-69
2022/11/13 01:06:51;;;;;;;0.00;0.00;;;;;;;16.57;54.89;103010.47;2089020;28;20158;-69
2022/11/13 01:08:13;;;;;;;0.00;0.00;;;;;;;16.57;54.90;103018.66;2092158;28;20055;-69
2022/11/13 01:09:34;;;;;;;0.00;0.00;;;;;;;16.56;55.03;103019.75;2093253;28;20079;-70
2022/11/13 01:10:55;;;;;;;0.00;0.00;;;;;;;16.55;55.13;103029.09;2093307;28;20059;-69
2022/11/13 01:12:16;;;;;;;0.00;0.00;;;;;;;16.55;55.05;103027.16;2092115;28;20073;-69
2022/11/13 01:13:37;;;;;;;0.00;0.00;;;;;;;16.54;54.93;103017.38;2094468;28;20113;-69
2022/11/13 01:14:58;;;;;;;0.00;0.00;;;;;;;16.52;54.94;103025.09;2095129;28;20052;-69
2022/11/13 01:16:22;;;;;;;0.00;0.00;;;;;;;16.57;55.04;103021.38;2094901;28;20056;-69
2022/11/13 01:17:42;;;;;;;0.00;0.00;;;;;;;16.56;55.00;103030.66;2088863;28;20060;-70
2022/11/13 01:19:03;;;;;;;;;;;;;;;16.37;55.37;103031.03;2095247;28;20045;-70
2022/11/13 01:20:25;;;;;;;0.00;0.00;;;;;;;16.49;55.27;103033.91;2093618;28;19999;-69
2022/11/13 01:21:46;;;;;;;0.00;0.00;;;;;;;16.52;54.99;103040.66;2093264;28;20130;-69
2022/11/13 01:23:08;;;;;;;0.00;0.00;;;;;;;16.54;55.10;103046.59;2094088;28;20056;-69
2022/11/13 01:24:30;;;;;;;0.00;0.00;;;;;;;16.52;55.17;103041.47;2091502;28;20117;-69
2022/11/13 01:25:51;;;;;;;0.00;0.00;;;;;;;16.53;54.93;103037.59;2096130;28;20048;-70
2022/11/13 01:27:14;;;;;;;0.00;0.00;;;;;;;16.53;55.04;103037.59;2091114;28;20840;-70
2022/11/13 01:28:36;;;;;;;0.00;0.00;;;;;;;16.54;55.03;103032.94;2095447;28;20090;-69
2022/11/13 01:29:57;;;;;;;0.00;0.00;;;;;;;16.54;55.16;103035.69;2091975;28;20061;-69
2022/11/13 01:31:20;;;;;;;0.00;0.00;;;;;;;16.53;54.99;103029.41;2095565;28;20458;-70
2022/11/13 01:32:41;;;;;;;0.00;0.00;;;;;;;16.54;55.20;103022.03;2095782;28;20052;-70
2022/11/13 01:34:02;;;;;;;0.00;0.00;;;;;;;16.54;55.06;103024.78;2095304;28;20056;-69
2022/11/13 01:35:23;;;;;;;;;;;;;;;16.36;55.56;103024.00;2090053;28;20569;-70
2022/11/13 01:36:44;;;;;;;0.00;0.00;;;;;;;16.48;55.37;103023.31;2093268;28;19975;-70
2022/11/13 01:38:04;;;;;;;0.00;0.00;;;;;;;16.50;55.17;103027.34;2093174;28;20049;-69
2022/11/13 01:39:27;;;;;;;0.00;0.00;;;;;;;16.51;54.90;103022.69;2092682;28;20115;-69
2022/11/13 01:40:47;;;;;;;0.00;0.00;;;;;;;16.51;55.05;103025.44;2090288;28;20056;-70
2022/11/13 01:42:08;;;;;;;0.00;0.00;;;;;;;16.50;55.13;103021.09;2090049;28;20084;-70
2022/11/13 01:43:31;;;;;;;0.00;0.00;;;;;;;16.51;54.98;103023.47;2089974;28;20131;-69
2022/11/13 01:44:55;;;;;;;0.00;0.00;;;;;;;16.52;54.94;103013.38;2088437;28;20578;-69
2022/11/13 01:46:29;;;;;;;0.00;0.00;;;;;;;16.50;54.78;103012.91;2093501;28;20066;-69
2022/11/13 01:47:50;;;;;;;0.00;0.00;;;;;;;16.50;54.95;103021.09;2089101;28;20087;-68
2022/11/13 01:49:27;;;;;;;0.00;0.00;;;;;;;16.46;54.84;103001.06;2092162;28;20048;-70
2022/11/13 01:50:47;;;;;;;0.00;0.00;;;;;;;16.48;54.90;102994.13;2090150;28;20137;-69
2022/11/13 01:52:13;;;;;;;0.00;0.00;;;;;;;16.49;54.78;102990.28;2088569;28;20079;-68
2022/11/13 01:53:33;;;;;;;0.00;0.00;;;;;;;16.48;55.00;102987.88;2091684;28;20064;-70
2022/11/13 01:54:59;;;;;;;0.00;0.00;;;;;;;16.48;54.70;102982.41;2090947;28;20055;-70
2022/11/13 01:56:21;;;;;;;0.00;0.00;;;;;;;16.48;54.84;102985.16;2088276;28;20045;-69
2022/11/13 01:57:42;;;;;;;0.00;0.00;;;;;;;16.48;54.87;102985.97;2092474;28;20052;-69
2022/11/13 01:59:08;;;;;;;0.00;0.00;;;;;;;16.48;54.83;102985.97;2088500;28;20045;-69
2022/11/13 02:00:29;;;;;;;0.00;0.00;;;;;;;16.48;54.79;102985.16;2094944;28;20169;-70
2022/11/13 02:01:50;;;;;;;0.00;0.00;;;;;;;16.47;54.77;102984.38;2089667;28;20103;-69
2022/11/13 02:03:10;;;;;;;0.00;0.00;;;;;;;16.48;54.77;102985.16;2093913;28;20105;-70
2022/11/13 02:04:32;;;;;;;0.00;0.00;;;;;;;16.47;54.81;102989.81;2093796;28;20063;-69
2022/11/13 02:05:53;;;;;;;0.00;0.00;;;;;;;16.48;54.78;102996.06;2090974;28;20080;-70
2022/11/13 02:07:17;;;;;;;0.00;0.00;;;;;;;16.49;54.77;102986.78;2095014;28;20095;-70
2022/11/13 02:08:38;;;;;;;0.00;0.00;;;;;;;16.48;54.79;102996.06;2093606;28;20090;-70
2022/11/13 02:10:01;;;;;;;0.00;0.00;;;;;;;16.48;54.67;102993.31;2095868;28;20155;-70
2022/11/13 02:11:21;;;;;;;0.00;0.00;;;;;;;16.47;54.65;102989.00;2088283;28;20053;-70
2022/11/13 02:12:49;;;;;;;0.00;0.00;;;;;;;16.47;54.70;102997.19;2093368;28;20122;-69
2022/11/13 02:14:13;;;;;;;0.00;0.00;;;;;;;16.46;54.73;102996.38;2094244;28;20544;-70
2022/11/13 02:15:34;;;;;;;0.00;0.00;;;;;;;16.46;54.74;102992.88;2092324;28;20059;-70
2022/11/13 02:17:02;;;;;;;0.00;0.00;;;;;;;16.46;54.71;102995.59;2095043;28;20052;-70
2022/11/13 02:18:24;;;;;;;0.00;0.00;;;;;;;16.44;54.71;102991.25;2093661;28;20101;-70
2022/11/13 02:19:51;;;;;;;0.00;0.00;;;;;;;16.46;54.70;102987.44;2094218;28;20480;-70
2022/11/13 02:21:37;;;;;;;0.00;0.00;;;;;;;16.37;54.64;102984.69;2089766;28;20538;-70
2022/11/13 02:23:08;;;;;;;0.00;0.00;;;;;;;16.42;54.62;102979.88;2095717;28;20403;-70
2022/11/13 02:24:33;;;;;;;0.00;0.00;;;;;;;16.42;54.61;102993.50;2088466;28;20095;-70
2022/11/13 02:25:57;;;;;;;0.00;0.00;;;;;;;16.42;54.78;102993.50;2088588;28;20052;-69
2022/11/13 02:27:24;;;;;;;0.00;0.00;;;;;;;16.43;54.51;102989.66;2095339;28;20403;-70
2022/11/13 02:28:45;;;;;;;0.00;0.00;;;;;;;16.42;54.73;102990.78;2091192;28;20045;-70
2022/11/13 02:30:16;;;;;;;0.00;0.00;;;;;;;16.41;54.62;102997.34;2088823;28;20467;-70
2022/11/13 02:31:41;;;;;;;0.00;0.00;;;;;;;16.41;54.80;102993.84;2093247;28;20083;-69
2022/11/13 02:33:19;;;;;;;0.00;0.00;;;;;;;16.41;54.65;102985.66;2089211;28;20200;-69
2022/11/13 02:34:40;;;;;;;0.00;0.00;;;;;;;16.39;54.63;102988.69;2094019;28;20127;-69
2022/11/13 02:36:02;;;;;;;0.00;0.00;;;;;;;16.40;54.70;102986.75;2093460;28;20059;-70
2022/11/13 02:37:23;;;;;;;0.00;0.00;;;;;;;16.41;54.60;102991.09;2088498;28;20582;-70
2022/11/13 02:38:46;;;;;;;0.00;0.00;;;;;;;16.40;54.52;102989.50;2094228;28;20055;-70
2022/11/13 02:40:09;;;;;;;0.00;0.00;;;;;;;16.41;54.57;102986.44;2093153;28;20766;-70
2022/11/13 02:41:30;;;;;;;0.00;0.00;;;;;;;16.41;54.57;102988.38;2095697;28;20056;-70
2022/11/13 02:42:50;;;;;;;0.00;0.00;;;;;;;16.40;54.58;102992.22;2095215;28;20075;-70
2022/11/13 02:44:12;;;;;;;0.00;0.00;;;;;;;16.39;54.68;102996.84;2090743;28;20426;-69
2022/11/13 02:45:32;;;;;;;0.00;0.00;;;;;;;16.40;54.50;103003.13;2088594;28;20892;-69
2022/11/13 02:46:53;;;;;;;0.00;0.00;;;;;;;16.39;54.55;102988.69;2090163;28;20175;-70
2022/11/13 02:48:13;;;;;;;0.00;0.00;;;;;;;16.39;54.39;102987.91;2093476;28;20044;-70
2022/11/13 02:49:35;;;;;;;0.00;0.00;;;;;;;16.38;54.69;102987.09;2095559;28;20101;-70
2022/11/13 02:50:56;;;;;;;0.00;0.00;;;;;;;16.39;54.59;102985.19;2093763;28;20060;-70
2022/11/13 02:52:17;;;;;;;0.00;0.00;;;;;;;16.39;54.46;102985.19;2095537;28;20095;-70
2022/11/13 02:53:38;;;;;;;0.00;0.00;;;;;;;16.39;54.46;102977.00;2096722;28;20048;-70
2022/11/13 02:54:59;;;;;;;0.00;0.00;;;;;;;16.38;54.53;102976.19;2090311;28;20055;-69
2022/11/13 02:56:20;;;;;;;0.00;0.00;;;;;;;16.39;54.45;102974.28;2090004;28;20615;-69
2022/11/13 02:57:42;;;;;;;0.00;0.00;;;;;;;16.38;54.52;102970.72;2091491;28;20037;-70
2022/11/13 02:59:04;;;;;;;0.00;0.00;;;;;;;16.38;54.46;102970.72;2087773;28;20047;-69
2022/11/13 03:00:24;;;;;;;0.00;0.00;;;;;;;16.39;54.48;102971.53;2081882;28;20053;-69
2022/11/13 03:01:46;;;;;;;0.00;0.00;;;;;;;16.37;54.87;102977.31;2087776;28;20057;-70
2022/11/13 03:03:06;;;;;;;0.00;0.00;;;;;;;16.38;54.48;102975.38;2081713;28;20049;-69
2022/11/13 03:04:28;;;;;;;0.00;0.00;;;;;;;16.38;54.59;102978.91;2087106;28;20417;-70
2022/11/13 03:06:09;;;;;;;0.00;0.00;;;;;;;16.35;54.61;102971.38;2086020;28;20464;-70
2022/11/13 03:07:30;;;;;;;0.00;0.00;;;;;;;16.36;54.50;102964.81;2086629;28;20063;-70
2022/11/13 03:08:51;;;;;;;0.00;0.00;;;;;;;16.37;54.51;102973.78;2079347;28;20064;-70
2022/11/13 03:10:13;;;;;;;0.00;0.00;;;;;;;16.36;54.45;102970.25;2082097;28;20092;-69
2022/11/13 03:11:36;;;;;;;0.00;0.00;;;;;;;16.37;54.38;102968.34;2088000;28;20059;-70
2022/11/13 03:12:58;;;;;;;0.00;0.00;;;;;;;16.37;54.40;102968.34;2082792;28;20065;-70
2022/11/13 03:14:19;;;;;;;0.00;0.00;;;;;;;16.36;54.58;102964.81;2081878;28;20552;-70
2022/11/13 03:15:40;;;;;;;0.00;0.00;;;;;;;16.37;54.33;102966.41;2082808;28;20045;-69
2022/11/13 03:17:01;;;;;;;0.00;0.00;;;;;;;16.38;54.37;102967.19;2085863;28;20045;-69
2022/11/13 03:18:22;;;;;;;0.00;0.00;;;;;;;16.36;54.35;102962.06;2087996;28;20052;-70
2022/11/13 03:19:43;;;;;;;0.00;0.00;;;;;;;16.37;54.32;102962.88;2088965;28;20144;-69
2022/11/13 03:21:08;;;;;;;;;;;;;;;16.18;54.67;102954.31;2089822;28;20637;-69
2022/11/13 03:22:28;;;;;;;0.00;0.00;;;;;;;16.28;54.72;102953.97;2084782;28;20011;-70
2022/11/13 03:23:49;;;;;;;0.00;0.00;;;;;;;16.30;54.49;102952.50;2081926;28;20086;-70
2022/11/13 03:25:10;;;;;;;0.00;0.00;;;;;;;16.32;54.49;102955.69;2082399;28;20542;-70
2022/11/13 03:26:31;;;;;;;0.00;0.00;;;;;;;16.33;54.32;102951.81;2088208;28;20167;-70
2022/11/13 03:27:54;;;;;;;0.00;0.00;;;;;;;16.33;54.30;102957.28;2081561;28;20100;-69
2022/11/13 03:29:19;;;;;;;0.00;0.00;;;;;;;16.32;54.35;102955.69;2086342;28;20052;-70
2022/11/13 03:30:39;;;;;;;0.00;0.00;;;;;;;16.33;54.41;102956.50;2081792;28;20084;-70
2022/11/13 03:32:02;;;;;;;0.00;0.00;;;;;;;16.32;54.34;102952.97;2082677;28;20045;-70
2022/11/13 03:33:22;;;;;;;0.00;0.00;;;;;;;16.31;54.42;102943.19;2085801;28;20759;-70
2022/11/13 03:34:44;;;;;;;0.00;0.00;;;;;;;16.32;54.42;102942.06;2085284;28;20108;-70
2022/11/13 03:36:06;;;;;;;0.00;0.00;;;;;;;16.33;54.35;102940.94;2087904;28;20083;-69
2022/11/13 03:37:28;;;;;;;0.00;0.00;;;;;;;16.32;54.53;102938.53;2084099;28;20117;-70
2022/11/13 03:38:50;;;;;;;0.00;0.00;;;;;;;16.32;54.39;102946.72;2081328;28;20059;-70
2022/11/13 03:40:11;;;;;;;0.00;0.00;;;;;;;16.32;54.45;102944.78;2088137;28;20041;-70
2022/11/13 03:41:32;;;;;;;0.00;0.00;;;;;;;16.32;54.44;102936.63;2084270;28;20103;-70
2022/11/13 03:42:54;;;;;;;0.00;0.00;;;;;;;16.33;54.26;102940.16;2082677;28;20064;-69
2022/11/13 03:44:15;;;;;;;0.00;0.00;;;;;;;16.32;54.37;102943.97;2087940;28;20048;-70
2022/11/13 03:45:35;;;;;;;0.00;0.00;;;;;;;16.32;54.36;102939.34;2083256;28;20053;-70
2022/11/13 03:46:57;;;;;;;0.00;0.00;;;;;;;16.32;54.39;102938.53;2080408;28;20053;-69
2022/11/13 03:48:18;;;;;;;0.00;0.00;;;;;;;16.32;54.36;102933.88;2081277;28;20924;-70
2022/11/13 03:49:39;;;;;;;0.00;0.00;;;;;;;16.32;54.42;102933.88;2083042;28;20056;-69
2022/11/13 03:51:00;;;;;;;0.00;0.00;;;;;;;16.32;54.16;102933.06;2081197;28;20473;-69
2022/11/13 03:52:22;;;;;;;0.00;0.00;;;;;;;16.32;54.43;102933.06;2080793;28;20101;-70
2022/11/13 03:53:42;;;;;;;0.00;0.00;;;;;;;16.32;54.40;102933.06;2082695;28;20063;-69
2022/11/13 03:55:04;;;;;;;0.00;0.00;;;;;;;16.33;54.21;102940.94;2081569;28;20383;-69
2022/11/13 03:56:25;;;;;;;0.00;0.00;;;;;;;16.32;54.26;102931.16;2084964;28;20493;-69
2022/11/13 03:57:47;;;;;;;0.00;0.00;;;;;;;16.33;54.26;102940.94;2091421;28;20123;-69
2022/11/13 03:59:09;;;;;;;0.00;0.00;;;;;;;16.33;54.28;102935.47;2095474;28;20557;-71
2022/11/13 04:00:30;;;;;;;0.00;0.00;;;;;;;16.32;54.43;102939.34;2095567;28;20101;-69
2022/11/13 04:01:52;;;;;;;0.00;0.00;;;;;;;16.32;54.46;102928.44;2091374;28;20054;-69
2022/11/13 04:03:12;;;;;;;0.00;0.00;;;;;;;16.33;54.43;102930.03;2089319;28;20151;-69
2022/11/13 04:04:33;;;;;;;0.00;0.00;;;;;;;16.32;54.58;102928.44;2095179;28;20558;-70
2022/11/13 04:05:54;;;;;;;0.00;0.00;;;;;;;16.34;54.51;102920.72;2092097;28;20553;-70
2022/11/13 04:07:15;;;;;;;;;;;;;;;16.15;55.08;102917.63;2092731;28;20051;-70
2022/11/13 04:08:36;;;;;;;0.00;0.00;;;;;;;16.27;54.93;102914.19;2090989;28;20016;-70
2022/11/13 04:09:57;;;;;;;0.00;0.00;;;;;;;16.30;54.73;102911.59;2089489;28;20076;-69
2022/11/13 04:11:18;;;;;;;0.00;0.00;;;;;;;16.30;54.82;102908.88;2096022;28;20048;-69
2022/11/13 04:12:39;;;;;;;0.00;0.00;;;;;;;16.33;54.97;102913.66;2096504;28;20053;-69
2022/11/13 04:14:00;;;;;;;0.00;0.00;;;;;;;16.34;54.77;102909.03;2097300;28;20044;-69
2022/11/13 04:15:23;;;;;;;0.00;0.00;;;;;;;16.34;54.94;102909.81;2093907;28;20183;-70
2022/11/13 04:16:43;;;;;;;0.00;0.00;;;;;;;16.34;54.93;102909.03;2095490;28;20583;-69
2022/11/13 04:18:04;;;;;;;0.00;0.00;;;;;;;16.32;54.97;102895.72;2091976;28;20053;-69
2022/11/13 04:19:25;;;;;;;0.00;0.00;;;;;;;16.35;54.94;102908.69;2089173;28;20084;-69
2022/11/13 04:20:46;;;;;;;0.00;0.00;;;;;;;16.34;54.95;102907.09;2092277;28;20055;-69
2022/11/13 04:22:06;;;;;;;0.00;0.00;;;;;;;16.37;55.00;102913.81;2092480;28;20059;-69
2022/11/13 04:23:28;;;;;;;0.00;0.00;;;;;;;16.36;55.11;102904.81;2095338;28;20105;-69
2022/11/13 04:24:49;;;;;;;0.00;0.00;;;;;;;16.37;55.21;102911.91;2089227;28;20091;-69
2022/11/13 04:26:10;;;;;;;0.00;0.00;;;;;;;16.38;55.03;102910.75;2096082;28;20051;-69
2022/11/13 04:27:30;;;;;;;0.00;0.00;;;;;;;16.38;55.08;102905.31;2089449;28;20049;-70
2022/11/13 04:28:51;;;;;;;0.00;0.00;;;;;;;16.38;55.23;102902.56;2089021;28;20471;-70
2022/11/13 04:30:12;;;;;;;0.00;0.00;;;;;;;16.38;55.08;102894.41;2093708;28;20148;-70
2022/11/13 04:31:34;;;;;;;0.00;0.00;;;;;;;16.39;55.16;102895.97;2093884;28;20132;-70
2022/11/13 04:32:54;;;;;;;0.00;0.00;;;;;;;16.39;55.06;102895.22;2095450;28;20135;-70
2022/11/13 04:34:16;;;;;;;0.00;0.00;;;;;;;16.38;55.09;102901.75;2094620;28;20055;-70
2022/11/13 04:35:36;;;;;;;0.00;0.00;;;;;;;16.38;55.11;102899.84;2095169;28;20060;-70
2022/11/13 04:36:57;;;;;;;0.00;0.00;;;;;;;16.37;55.03;102898.25;2090931;28;20048;-69
2022/11/13 04:38:18;;;;;;;0.00;0.00;;;;;;;16.39;55.13;102903.38;2093667;28;20122;-70
2022/11/13 04:39:39;;;;;;;0.00;0.00;;;;;;;16.38;55.09;102902.56;2093810;28;20087;-69
2022/11/13 04:42:48;;;;;;;0.00;0.00;;;;;;;16.36;55.12;102902.09;2094168;28;20051;-69
2022/11/13 04:44:09;;;;;;;0.00;0.00;;;;;;;16.37;55.02;102897.47;2090957;28;20053;-69
2022/11/13 04:45:31;;;;;;;0.00;0.00;;;;;;;16.37;55.05;102892.81;2089252;28;20057;-69
2022/11/13 04:46:53;;;;;;;0.00;0.00;;;;;;;16.38;54.83;102897.13;2090418;28;20048;-70
2022/11/13 04:48:14;;;;;;;0.00;0.00;;;;;;;16.37;54.85;102897.47;2094762;28;20416;-70
2022/11/13 04:49:35;;;;;;;0.00;0.00;;;;;;;16.35;54.87;102895.06;2095986;28;20042;-70
2022/11/13 04:50:55;;;;;;;0.00;0.00;;;;;;;16.37;55.01;102894.72;2096224;28;20059;-70
2022/11/13 04:52:17;;;;;;;0.00;0.00;;;;;;;16.37;55.07;102898.25;2094931;28;20052;-70
2022/11/13 04:53:38;;;;;;;0.00;0.00;;;;;;;16.37;54.83;102901.00;2093270;28;20552;-70
2022/11/13 04:54:59;;;;;;;0.00;0.00;;;;;;;16.37;54.93;102901.00;2090663;28;20052;-70
2022/11/13 04:56:20;;;;;;;0.00;0.00;;;;;;;16.35;55.02;102905.97;2094301;28;20083;-70
2022/11/13 04:57:41;;;;;;;0.00;0.00;;;;;;;16.37;54.92;102892.81;2094121;28;20059;-69
2022/11/13 04:59:02;;;;;;;0.00;0.00;;;;;;;16.37;54.90;102902.91;2093791;28;20044;-69
2022/11/13 05:00:23;;;;;;;0.00;0.00;;;;;;;16.37;54.85;102892.81;2089335;28;20534;-69
2022/11/13 05:01:44;;;;;;;0.00;0.00;;;;;;;16.37;54.98;102892.81;2091889;28;20057;-70
2022/11/13 05:03:06;;;;;;;0.00;0.00;;;;;;;16.37;54.80;102895.53;2096506;28;20049;-70
2022/11/13 05:04:28;;;;;;;0.00;0.00;;;;;;;16.36;54.86;102891.19;2094735;28;20109;-70
2022/11/13 05:05:49;;;;;;;0.00;0.00;;;;;;;16.36;55.00;102895.88;2090508;28;20655;-70
2022/11/13 05:07:10;;;;;;;0.00;0.00;;;;;;;16.36;54.74;102891.19;2090759;28;20055;-69
2022/11/13 05:08:32;;;;;;;0.00;0.00;;;;;;;16.36;54.85;102891.19;2096072;28;20044;-69
2022/11/13 05:09:52;;;;;;;0.00;0.00;;;;;;;16.35;54.49;102888.78;2095761;28;20056;-70
2022/11/13 05:11:14;;;;;;;0.00;0.00;;;;;;;16.36;54.93;102891.19;2089037;28;20049;-69
2022/11/13 05:12:34;;;;;;;0.00;0.00;;;;;;;16.36;54.84;102880.28;2095017;28;20056;-69
2022/11/13 05:13:55;;;;;;;0.00;0.00;;;;;;;16.35;55.00;102878.69;2095397;28;20044;-69
2022/11/13 05:15:23;;;;;;;0.00;0.00;;;;;;;16.34;54.88;102879.84;2090401;28;20062;-70
2022/11/13 05:16:44;;;;;;;0.00;0.00;;;;;;;16.36;54.91;102883.00;2093242;28;20128;-69
2022/11/13 05:18:07;;;;;;;0.00;0.00;;;;;;;16.37;54.93;102881.09;2094710;28;20464;-70
2022/11/13 05:19:27;;;;;;;0.00;0.00;;;;;;;16.35;54.96;102881.44;2090225;28;20049;-70
2022/11/13 05:20:48;;;;;;;;;;;;;;;16.17;55.47;102879.91;2089727;28;20060;-70
2022/11/13 05:22:09;;;;;;;0.00;0.00;;;;;;;16.29;55.28;102882.75;2092335;28;19935;-70
2022/11/13 05:23:32;;;;;;;0.00;0.00;;;;;;;16.31;54.98;102880.50;2089728;28;20580;-70
2022/11/13 05:24:53;;;;;;;0.00;0.00;;;;;;;16.34;55.12;102882.56;2095531;28;20923;-71
2022/11/13 05:26:13;;;;;;;0.00;0.00;;;;;;;16.35;54.94;102883.34;2096580;28;20055;-71
2022/11/13 05:27:35;;;;;;;0.00;0.00;;;;;;;16.32;54.99;102868.47;2079736;28;20489;-68
2022/11/13 05:28:56;;;;;;;0.00;0.00;;;;;;;16.36;55.15;102882.25;2078424;28;20718;-69
2022/11/13 05:30:17;;;;;;;0.00;0.00;;;;;;;16.35;55.05;102884.16;2088101;28;20152;-70
2022/11/13 05:31:38;;;;;;;0.00;0.00;;;;;;;16.36;55.06;102882.25;2091919;28;20830;-69
2022/11/13 05:33:00;;;;;;;0.00;0.00;;;;;;;16.35;54.80;102881.44;2094594;28;20143;-69
2022/11/13 05:34:22;;;;;;;0.00;0.00;;;;;;;16.36;55.06;102874.06;2085898;28;20477;-70
2022/11/13 05:35:43;;;;;;;0.00;0.00;;;;;;;16.36;55.14;102874.06;2090140;28;20060;-70
2022/11/13 05:37:04;;;;;;;0.00;0.00;;;;;;;16.36;54.98;102874.84;2089968;28;20052;-70
2022/11/13 05:38:26;;;;;;;0.00;0.00;;;;;;;16.36;55.09;102866.66;2092273;28;20131;-70
2022/11/13 05:39:47;;;;;;;0.00;0.00;;;;;;;16.36;54.85;102871.34;2092711;28;20642;-70
2022/11/13 05:41:10;;;;;;;0.00;0.00;;;;;;;16.37;54.91;102870.19;2088936;28;20094;-70
2022/11/13 05:42:31;;;;;;;0.00;0.00;;;;;;;16.35;55.01;102865.06;2087432;28;20483;-70
2022/11/13 05:43:53;;;;;;;0.00;0.00;;;;;;;16.36;54.81;102865.88;2090592;28;20123;-70
2022/11/13 05:45:19;;;;;;;0.00;0.00;;;;;;;16.34;54.87;102860.75;2090680;28;20127;-70
2022/11/13 05:46:40;;;;;;;0.00;0.00;;;;;;;16.34;54.96;102863.47;2090355;28;20115;-70
2022/11/13 05:48:02;;;;;;;0.00;0.00;;;;;;;16.35;54.90;102867.00;2092048;28;20045;-70
2022/11/13 05:49:24;;;;;;;0.00;0.00;;;;;;;16.35;54.80;102865.06;2095169;28;20580;-70
2022/11/13 05:50:45;;;;;;;0.00;0.00;;;;;;;16.33;54.97;102853.69;2095474;28;20048;-70
2022/11/13 05:52:06;;;;;;;0.00;0.00;;;;;;;16.33;54.79;102850.97;2096021;28;20089;-69
2022/11/13 05:53:27;;;;;;;0.00;0.00;;;;;;;16.34;54.84;102854.50;2091087;28;20499;-69
2022/11/13 05:54:48;;;;;;;0.00;0.00;;;;;;;16.30;54.72;102845.38;2091345;28;20472;-69
2022/11/13 05:56:11;;;;;;;0.00;0.00;;;;;;;16.35;54.81;102853.34;2088883;28;20059;-70
2022/11/13 05:57:32;;;;;;;0.00;0.00;;;;;;;16.33;54.83;102848.22;2090017;28;20588;-70
2022/11/13 05:58:53;;;;;;;0.00;0.00;;;;;;;16.33;54.68;102852.91;2089075;28;20136;-70
2022/11/13 06:00:16;;;;;;;0.00;0.00;;;;;;;16.34;54.75;102860.75;2095125;28;20052;-70
2022/11/13 06:01:39;;;;;;;0.00;0.00;;;;;;;16.33;54.56;102859.13;2088642;28;20554;-70
2022/11/13 06:03:00;;;;;;;0.00;0.00;;;;;;;16.32;54.84;102860.28;2095317;28;20056;-70
2022/11/13 06:04:21;;;;;;;0.00;0.00;;;;;;;16.32;54.77;102859.47;2090204;28;20052;-70
2022/11/13 06:05:43;;;;;;;0.00;0.00;;;;;;;16.33;54.53;102855.63;2092339;28;20452;-70
2022/11/13 06:07:04;;;;;;;0.00;0.00;;;;;;;16.32;54.78;102862.19;2089857;28;20572;-70
2022/11/13 06:08:25;;;;;;;0.00;0.00;;;;;;;16.31;54.69;102864.16;2096227;28;20139;-69
2022/11/13 06:09:46;;;;;;;0.00;0.00;;;;;;;16.31;54.74;102864.16;2090702;28;20382;-69
2022/11/13 06:11:10;;;;;;;0.00;0.00;;;;;;;16.31;54.68;102864.16;2088643;28;20106;-70
2022/11/13 06:12:31;;;;;;;0.00;0.00;;;;;;;16.29;54.57;102854.69;2088846;28;20517;-70
2022/11/13 06:13:54;;;;;;;0.00;0.00;;;;;;;16.31;54.38;102857.88;2091517;28;20052;-70
2022/11/13 06:15:14;;;;;;;0.00;0.00;;;;;;;16.29;54.49;102855.50;2090971;28;20760;-69
2022/11/13 06:16:37;;;;;;;0.00;0.00;;;;;;;16.29;54.68;102857.41;2089028;28;20079;-70
2022/11/13 06:17:59;;;;;;;0.00;0.00;;;;;;;16.29;54.57;102873.75;2088467;28;20516;-70
2022/11/13 06:19:19;;;;;;;0.00;0.00;;;;;;;16.28;54.40;102853.09;2096118;28;20062;-71
2022/11/13 06:20:40;;;;;;;0.00;0.00;;;;;;;16.24;54.50;102858.41;2093274;28;20053;-71
2022/11/13 06:22:03;;;;;;;0.00;0.00;;;;;;;16.28;54.54;102862.06;2091273;28;20071;-70
2022/11/13 06:23:23;;;;;;;0.00;0.00;;;;;;;16.27;54.31;102860.47;2093228;28;20051;-70
2022/11/13 06:24:45;;;;;;;;;;;;;;;16.08;54.68;102856.56;2093090;28;20419;-71